Time,TemperatureF,DewpointF,PressureIn,WindDirection,WindDirectionDegrees,WindSpeedMPH,WindSpeedGustMPH,Humidity,HourlyPrecipIn,Conditions,Clouds,dailyrainin,SoftwareType,DateUTC
2013-09-13 00:13:00,82.0,67.0,29.87,SE,134,0.0,0.0,61,0.00,,,0.00,,2013-09-13 05:13:00,
2013-09-13 00:22:00,81.0,68.0,29.86,SE,135,0.0,0.0,64,0.00,,,0.00,,2013-09-13 05:22:00,
2013-09-13 00:53:00,80.0,67.0,29.87,SE,135,0.0,0.0,65,0.00,,,0.00,,2013-09-13 05:53:00,
2013-09-13 01:12:00,80.0,66.0,29.87,SE,141,1.0,7.0,63,0.00,,,0.00,,2013-09-13 06:12:00,
2013-09-13 01:22:00,81.0,67.0,29.87,SE,146,2.0,9.0,62,0.00,,,0.00,,2013-09-13 06:22:00,
2013-09-13 01:52:00,80.0,67.0,29.87,SSW,192,0.0,5.0,64,0.00,,,0.00,,2013-09-13 06:52:00,
2013-09-13 02:11:00,80.0,67.0,29.87,SSW,193,0.0,5.0,65,0.00,,,0.00,,2013-09-13 07:11:00,
2013-09-13 02:22:00,79.0,68.0,29.87,SSW,196,1.0,6.0,68,0.00,,,0.00,,2013-09-13 07:22:00,
2013-09-13 02:52:00,78.0,68.0,29.87,SW,235,0.0,7.0,71,0.00,,,0.00,,2013-09-13 07:52:00,
2013-09-13 03:11:00,78.0,68.0,29.86,SW,234,0.0,0.0,71,0.00,,,0.00,,2013-09-13 08:11:00,
2013-09-13 03:22:00,78.0,68.0,29.86,SW,235,0.0,0.0,71,0.00,,,0.00,,2013-09-13 08:22:00,
2013-09-13 03:52:00,77.0,68.0,29.86,SW,236,0.0,0.0,73,0.00,,,0.00,,2013-09-13 08:52:00,
2013-09-13 04:12:00,77.0,68.0,29.86,SW,236,0.0,0.0,73,0.00,,,0.00,,2013-09-13 09:12:00,
2013-09-13 04:21:00,77.0,68.0,29.85,SW,236,0.0,0.0,74,0.00,,,0.00,,2013-09-13 09:21:00,
2013-09-13 04:54:00,76.0,68.0,29.85,SW,236,0.0,0.0,76,0.00,,,0.00,,2013-09-13 09:54:00,
2013-09-13 05:23:00,75.0,68.0,29.85,SW,236,0.0,0.0,78,0.00,,,0.00,,2013-09-13 10:23:00,
2013-09-13 05:53:00,74.0,67.0,29.85,SW,236,0.0,0.0,78,0.00,,,0.00,,2013-09-13 10:53:00,
2013-09-13 06:12:00,74.0,67.0,29.85,SW,236,0.0,0.0,79,0.00,,,0.00,,2013-09-13 11:12:00,
2013-09-13 06:22:00,74.0,67.0,29.86,SW,236,0.0,0.0,79,0.00,,,0.00,,2013-09-13 11:22:00,
2013-09-13 06:52:00,73.0,66.0,29.86,SW,236,0.0,0.0,80,0.00,,,0.00,,2013-09-13 11:52:00,
2013-09-13 07:12:00,72.0,66.0,29.86,SW,236,0.0,0.0,81,0.00,,,0.00,,2013-09-13 12:12:00,
2013-09-13 07:21:00,72.0,66.0,29.86,SW,236,0.0,0.0,81,0.00,,,0.00,,2013-09-13 12:21:00,
2013-09-13 07:52:00,71.0,65.0,29.86,SW,236,0.0,0.0,82,0.00,,,0.00,,2013-09-13 12:52:00,
2013-09-13 08:11:00,71.0,66.0,29.86,SW,236,0.0,0.0,83,0.00,,,0.00,,2013-09-13 13:11:00,
2013-09-13 08:21:00,72.0,67.0,29.87,SW,236,0.0,0.0,83,0.00,,,0.00,,2013-09-13 13:21:00,
2013-09-13 08:52:00,73.0,68.0,29.87,SW,236,0.0,0.0,83,0.00,,,0.00,,2013-09-13 13:52:00,
2013-09-13 09:22:00,77.0,70.0,29.86,SW,236,0.0,0.0,78,0.00,,,0.00,,2013-09-13 14:22:00,
2013-09-13 09:52:00,81.0,69.0,29.87,SW,236,0.0,0.0,68,0.00,,,0.00,,2013-09-13 14:52:00,
2013-09-13 10:11:00,83.0,70.0,29.87,NW,309,0.0,0.0,64,0.00,,,0.00,,2013-09-13 15:11:00,
2013-09-13 10:22:00,84.0,67.0,29.87,NW,311,0.0,0.0,57,0.00,,,0.00,,2013-09-13 15:22:00,
2013-09-13 10:53:00,87.0,66.0,29.87,WSW,252,2.0,5.0,50,0.00,,,0.00,,2013-09-13 15:53:00,
2013-09-13 11:12:00,88.0,66.0,29.87,WSW,248,0.0,7.0,49,0.00,,,0.00,,2013-09-13 16:12:00,
2013-09-13 11:24:00,89.0,66.0,29.87,SW,218,1.0,6.0,47,0.00,,,0.00,,2013-09-13 16:24:00,
2013-09-13 11:54:00,91.0,67.0,29.86,South,191,0.0,6.0,46,0.00,,,0.00,,2013-09-13 16:54:00,
2013-09-13 12:24:00,91.0,64.0,29.85,SE,130,2.0,9.0,41,0.00,,,0.00,,2013-09-13 17:24:00,
2013-09-13 12:53:00,94.0,65.0,29.84,South,185,1.0,8.0,39,0.00,,,0.00,,2013-09-13 17:53:00,
2013-09-13 13:22:00,94.0,64.0,29.83,SE,132,1.0,10.0,38,0.00,,,0.00,,2013-09-13 18:22:00,
2013-09-13 13:52:00,94.0,64.0,29.81,SE,137,5.0,15.0,37,0.00,,,0.00,,2013-09-13 18:52:00,
2013-09-13 14:11:00,95.0,63.0,29.80,SE,144,2.0,10.0,35,0.00,,,0.00,,2013-09-13 19:11:00,
2013-09-13 14:22:00,96.0,64.0,29.79,South,169,5.0,15.0,35,0.00,,,0.00,,2013-09-13 19:22:00,
2013-09-13 14:52:00,95.0,63.0,29.78,SW,219,2.0,13.0,35,0.00,,,0.00,,2013-09-13 19:52:00,
2013-09-13 15:11:00,95.0,62.0,29.78,SE,135,4.0,13.0,34,0.00,,,0.00,,2013-09-13 20:11:00,
2013-09-13 15:22:00,95.0,63.0,29.76,SSE,157,4.0,12.0,35,0.00,,,0.00,,2013-09-13 20:22:00,
2013-09-13 15:52:00,96.0,63.0,29.75,SSE,153,4.0,12.0,34,0.00,,,0.00,,2013-09-13 20:52:00,
2013-09-13 16:22:00,95.0,63.0,29.73,SE,141,0.0,11.0,35,0.00,,,0.00,,2013-09-13 21:22:00,
2013-09-13 16:54:00,95.0,62.0,29.72,South,169,5.0,14.0,34,0.00,,,0.00,,2013-09-13 21:54:00,
2013-09-13 17:13:00,95.0,63.0,29.72,SE,137,6.0,13.0,35,0.00,,,0.00,,2013-09-13 22:13:00,
2013-09-13 17:24:00,96.0,62.0,29.71,SE,128,5.0,14.0,33,0.00,,,0.00,,2013-09-13 22:24:00,
2013-09-13 17:53:00,96.0,64.0,29.71,SSE,153,2.0,11.0,35,0.00,,,0.00,,2013-09-13 22:53:00,
2013-09-13 18:22:00,94.0,62.0,29.70,SE,130,7.0,12.0,35,0.00,,,0.00,,2013-09-13 23:22:00,
2013-09-13 18:52:00,93.0,62.0,29.70,SE,132,4.0,11.0,36,0.00,,,0.00,,2013-09-13 23:52:00,
2013-09-13 19:12:00,93.0,62.0,29.70,South,191,2.0,8.0,36,0.00,,,0.00,,2013-09-14 00:12:00,
2013-09-13 19:22:00,93.0,63.0,29.71,SE,145,3.0,8.0,37,0.00,,,0.00,,2013-09-14 00:22:00,
2013-09-13 19:52:00,92.0,62.0,29.72,SSE,151,6.0,9.0,37,0.00,,,0.00,,2013-09-14 00:52:00,
2013-09-13 20:11:00,91.0,62.0,29.72,SSE,166,2.0,7.0,38,0.00,,,0.00,,2013-09-14 01:11:00,
2013-09-13 20:22:00,90.0,62.0,29.72,SSE,166,0.0,3.0,39,0.00,,,0.00,,2013-09-14 01:22:00,
2013-09-13 20:42:00,90.0,62.0,29.72,SSE,155,3.0,7.0,40,0.00,,,0.00,,2013-09-14 01:42:00,
2013-09-13 20:52:00,89.0,61.0,29.73,SSE,167,1.0,10.0,40,0.00,,,0.00,,2013-09-14 01:52:00,
2013-09-13 21:12:00,89.0,62.0,29.73,SSE,156,0.0,0.0,41,0.00,,,0.00,,2013-09-14 02:12:00,
2013-09-13 21:22:00,88.0,63.0,29.74,SSE,156,0.0,0.0,44,0.00,,,0.00,,2013-09-14 02:22:00,
2013-09-13 21:42:00,87.0,62.0,29.75,SSE,156,0.0,0.0,44,0.00,,,0.00,,2013-09-14 02:42:00,
2013-09-13 21:52:00,87.0,64.0,29.75,SSE,156,0.0,0.0,47,0.00,,,0.00,,2013-09-14 02:52:00,
2013-09-13 22:22:00,85.0,62.0,29.76,SSE,156,0.0,0.0,47,0.00,,,0.00,,2013-09-14 03:22:00,
2013-09-13 22:55:00,84.0,63.0,29.77,SSE,156,0.0,0.0,49,0.00,,,0.00,,2013-09-14 03:55:00,
2013-09-13 23:14:00,84.0,63.0,29.77,SSE,156,0.0,0.0,50,0.00,,,0.00,,2013-09-14 04:14:00,
2013-09-13 23:24:00,83.0,62.0,29.77,South,180,0.0,7.0,50,0.00,,,0.00,,2013-09-14 04:24:00,
2013-09-13 23:54:00,83.0,64.0,29.78,SW,220,3.0,10.0,53,0.00,,,0.00,,2013-09-14 04:54:00,